Time;durP1;ratioP1;P1;durP2;ratioP2;P2;SDS_P1;SDS_P2;PMS_P1;PMS_P2;Temp;Humidity;BMP_temperature;BMP_pressure;BME280_temperature;BME280_humidity;BME280_pressure;Samples;Min_cycle;Max_cycle;Signal;HPM_P1;HPM_P2
2022/01/06 00:00:00;;;;;;;;;;;23.10;42.70;;;;;;696683;28;798;-86
2022/01/06 00:00:22;;;;;;;;;;;23.10;42.70;;;;;;693677;28;860;-87
2022/01/06 00:00:42;;;;;;;;;;;23.10;42.70;;;;;;693877;28;806;-86
2022/01/06 00:01:04;;;;;;;;;;;23.10;42.90;;;;;;693737;28;886;-85
2022/01/06 00:01:25;;;;;;;;;;;23.10;42.70;;;;;;693841;28;837;-85
2022/01/06 00:01:45;;;;;;;;;;;23.10;42.80;;;;;;691056;28;1287;-86
2022/01/06 00:02:06;;;;;;;;;;;23.10;42.60;;;;;;691556;28;736;-86
2022/01/06 00:02:26;;;;;;;;;;;23.10;42.40;;;;;;693748;28;937;-84
2022/01/06 00:02:47;;;;;;;;;;;23.10;42.50;;;;;;693942;28;798;-84
2022/01/06 00:03:07;;;;;;;;;;;23.10;42.60;;;;;;693783;28;1071;-86
2022/01/06 00:03:28;;;;;;;;;;;23.20;42.50;;;;;;694080;28;881;-86
2022/01/06 00:03:49;;;;;;;;;;;23.20;42.50;;;;;;696740;28;790;-86
2022/01/06 00:04:09;;;;;;;;;;;23.20;42.40;;;;;;696712;28;871;-86
2022/01/06 00:04:30;;;;;;;;;;;23.20;42.50;;;;;;696664;28;846;-86
2022/01/06 00:04:51;;;;;;;;;;;23.20;42.50;;;;;;696670;28;858;-85
2022/01/06 00:05:12;;;;;;;;;;;23.20;42.40;;;;;;696826;28;826;-85
2022/01/06 00:05:32;;;;;;;;;;;23.20;42.60;;;;;;696758;28;838;-85
2022/01/06 00:05:54;;;;;;;;;;;23.20;42.40;;;;;;696595;28;854;-86
2022/01/06 00:06:15;;;;;;;;;;;23.20;42.20;;;;;;696791;28;798;-85
2022/01/06 00:06:39;;;;;;;;;;;23.20;42.70;;;;;;696733;28;860;-85
2022/01/06 00:06:59;;;;;;;;;;;23.20;42.20;;;;;;696725;28;917;-87
2022/01/06 00:07:20;;;;;;;;;;;23.20;42.10;;;;;;696717;28;841;-84
2022/01/06 00:07:41;;;;;;;;;;;23.20;42.10;;;;;;696811;28;850;-87
2022/01/06 00:08:02;;;;;;;;;;;23.20;42.00;;;;;;696815;28;853;-86
2022/01/06 00:08:23;;;;;;;;;;;23.20;42.00;;;;;;696679;28;988;-86
2022/01/06 00:08:43;;;;;;;;;;;23.20;42.00;;;;;;696820;28;846;-87
2022/01/06 00:09:06;;;;;;;;;;;23.20;41.80;;;;;;696770;28;935;-86
2022/01/06 00:09:26;;;;;;;;;;;23.20;41.80;;;;;;693703;28;940;-85
2022/01/06 00:09:49;;;;;;;;;;;23.20;41.80;;;;;;693894;28;805;-86
2022/01/06 00:10:12;;;;;;;;;;;23.20;41.70;;;;;;693850;28;901;-87
2022/01/06 00:10:33;;;;;;;;;;;23.20;41.70;;;;;;693731;28;863;-85
2022/01/06 00:10:53;;;;;;;;;;;23.20;41.70;;;;;;693957;28;861;-85
2022/01/06 00:11:14;;;;;;;;;;;23.20;41.50;;;;;;694894;28;877;-83
2022/01/06 00:11:35;;;;;;;;;;;23.30;41.50;;;;;;696711;28;910;-86
2022/01/06 00:11:56;;;;;;;;;;;23.30;41.60;;;;;;696762;28;880;-87
2022/01/06 00:12:19;;;;;;;;;;;23.20;41.50;;;;;;696814;28;909;-87
2022/01/06 00:13:29;;;;;;;;;;;23.20;41.50;;;;;;691022;28;972;-86
2022/01/06 00:14:51;;;;;;;;;;;23.30;41.30;;;;;;690876;28;1193;-84
2022/01/06 00:16:28;;;;;;;;;;;23.30;41.10;;;;;;690946;28;672;-84
2022/01/06 00:17:23;;;;;;;;;;;23.30;41.10;;;;;;691026;28;1966;-83
2022/01/06 00:18:08;;;;;;;;;;;23.30;41.10;;;;;;693571;28;1204;-84
2022/01/06 00:23:43;;;;;;;;;;;23.30;40.70;;;;;;693740;28;585;-85
2022/01/06 00:24:04;;;;;;;;;;;23.30;40.60;;;;;;693828;28;876;-85
2022/01/06 00:24:25;;;;;;;;;;;23.30;40.70;;;;;;693631;28;716;-84
2022/01/06 00:24:46;;;;;;;;;;;23.30;40.80;;;;;;693995;28;897;-85
2022/01/06 00:25:07;;;;;;;;;;;23.30;40.70;;;;;;693738;28;904;-85
2022/01/06 00:25:27;;;;;;;;;;;23.30;40.80;;;;;;693623;28;889;-87
2022/01/06 00:25:49;;;;;;;;;;;23.30;40.70;;;;;;690953;28;1120;-86
2022/01/06 00:26:09;;;;;;;;;;;23.30;40.70;;;;;;690920;28;829;-85
2022/01/06 00:26:30;;;;;;;;;;;23.30;40.80;;;;;;691003;28;889;-85
2022/01/06 00:26:50;;;;;;;;;;;23.30;40.90;;;;;;690987;28;827;-83
2022/01/06 00:27:11;;;;;;;;;;;23.30;41.80;;;;;;691060;28;981;-84
2022/01/06 00:27:31;;;;;;;;;;;23.30;40.90;;;;;;691329;28;786;-86
2022/01/06 00:27:52;;;;;;;;;;;23.30;40.80;;;;;;691176;28;790;-89
2022/01/06 00:28:12;;;;;;;;;;;23.30;40.90;;;;;;691312;28;779;-90
2022/01/06 00:28:34;;;;;;;;;;;23.30;40.90;;;;;;691380;28;1370;-92
2022/01/06 00:28:54;;;;;;;;;;;23.30;40.80;;;;;;691401;28;989;-85
2022/01/06 00:29:15;;;;;;;;;;;22.20;40.20;;;;;;691203;28;929;-87
2022/01/06 00:29:36;;;;;;;;;;;23.30;40.90;;;;;;691286;28;799;-85
2022/01/06 00:29:56;;;;;;;;;;;23.30;40.90;;;;;;691083;28;901;-85
2022/01/06 00:30:17;;;;;;;;;;;23.30;41.00;;;;;;691073;28;886;-87
2022/01/06 00:30:38;;;;;;;;;;;23.30;40.40;;;;;;690929;28;849;-88
2022/01/06 00:31:00;;;;;;;;;;;23.30;40.60;;;;;;690945;28;854;-86
2022/01/06 00:31:20;;;;;;;;;;;23.30;40.60;;;;;;690990;28;873;-87
2022/01/06 00:31:41;;;;;;;;;;;23.30;40.60;;;;;;691497;28;992;-83
2022/01/06 00:32:02;;;;;;;;;;;23.30;40.60;;;;;;693649;28;1137;-87
2022/01/06 00:32:22;;;;;;;;;;;23.30;40.70;;;;;;693708;28;794;-90
2022/01/06 00:32:43;;;;;;;;;;;23.20;40.70;;;;;;693658;28;1427;-86
2022/01/06 00:33:03;;;;;;;;;;;23.30;40.80;;;;;;693757;28;830;-87
2022/01/06 00:33:25;;;;;;;;;;;23.30;40.90;;;;;;693866;28;830;-82
2022/01/06 00:33:45;;;;;;;;;;;23.30;40.90;;;;;;694374;28;854;-84
2022/01/06 00:34:10;;;;;;;;;;;23.20;40.90;;;;;;694006;28;913;-85
2022/01/06 00:34:30;;;;;;;;;;;23.20;40.80;;;;;;693786;28;826;-86
2022/01/06 00:34:51;;;;;;;;;;;23.20;40.70;;;;;;693846;28;830;-84
2022/01/06 00:35:12;;;;;;;;;;;23.20;40.70;;;;;;693826;28;778;-83
2022/01/06 00:35:33;;;;;;;;;;;23.20;40.70;;;;;;693838;28;877;-85
2022/01/06 00:35:53;;;;;;;;;;;23.30;40.80;;;;;;693816;28;802;-84
2022/01/06 00:36:15;;;;;;;;;;;23.20;40.70;;;;;;693953;28;861;-86
2022/01/06 00:36:39;;;;;;;;;;;23.70;41.00;;;;;;693871;28;976;-85
2022/01/06 00:37:01;;;;;;;;;;;23.20;40.70;;;;;;694302;28;1000;-84
2022/01/06 00:37:21;;;;;;;;;;;23.20;40.70;;;;;;694545;28;1910;-88
2022/01/06 00:37:42;;;;;;;;;;;23.20;40.70;;;;;;694614;28;1456;-84
2022/01/06 00:38:06;;;;;;;;;;;23.20;40.70;;;;;;694017;28;1076;-82
2022/01/06 00:38:27;;;;;;;;;;;23.20;40.50;;;;;;694291;28;1139;-85
2022/01/06 00:38:48;;;;;;;;;;;23.20;40.60;;;;;;694378;28;967;-84
2022/01/06 00:39:09;;;;;;;;;;;23.20;40.60;;;;;;694922;28;929;-84
2022/01/06 00:39:29;;;;;;;;;;;23.20;40.60;;;;;;694830;28;810;-84
2022/01/06 00:39:50;;;;;;;;;;;23.20;40.60;;;;;;694906;28;803;-82
2022/01/06 00:40:11;;;;;;;;;;;23.20;40.60;;;;;;694906;28;1402;-82
2022/01/06 00:40:32;;;;;;;;;;;23.20;40.60;;;;;;694210;28;790;-84
2022/01/06 00:40:53;;;;;;;;;;;23.20;40.60;;;;;;691439;28;1241;-85
2022/01/06 00:41:14;;;;;;;;;;;23.20;40.60;;;;;;691713;28;830;-83
2022/01/06 00:41:36;;;;;;;;;;;23.20;40.60;;;;;;691502;28;798;-82
2022/01/06 00:41:59;;;;;;;;;;;23.20;40.70;;;;;;691465;28;830;-81
2022/01/06 00:42:20;;;;;;;;;;;23.20;40.70;;;;;;691564;28;897;-82
2022/01/06 00:42:42;;;;;;;;;;;23.20;40.70;;;;;;692504;28;862;-81
2022/01/06 00:43:04;;;;;;;;;;;23.20;40.60;;;;;;694207;28;897;-81
2022/01/06 00:43:24;;;;;;;;;;;23.20;40.60;;;;;;694418;28;897;-82
2022/01/06 00:43:45;;;;;;;;;;;23.20;40.60;;;;;;694254;28;874;-80
2022/01/06 00:44:06;;;;;;;;;;;23.20;40.70;;;;;;694269;28;782;-81
2022/01/06 00:44:27;;;;;;;;;;;23.20;40.70;;;;;;694200;28;854;-81
2022/01/06 00:44:47;;;;;;;;;;;23.20;40.60;;;;;;694325;28;885;-81
2022/01/06 00:45:08;;;;;;;;;;;23.20;40.60;;;;;;694231;28;967;-81
2022/01/06 00:45:29;;;;;;;;;;;23.10;40.70;;;;;;694247;28;890;-84
2022/01/06 00:45:50;;;;;;;;;;;23.20;40.70;;;;;;694172;28;1421;-82
2022/01/06 00:46:10;;;;;;;;;;;23.10;40.70;;;;;;694323;28;842;-84
2022/01/06 00:46:32;;;;;;;;;;;23.20;40.70;;;;;;694213;28;814;-84
2022/01/06 00:46:53;;;;;;;;;;;23.20;40.70;;;;;;694233;28;853;-83
2022/01/06 00:47:13;;;;;;;;;;;23.10;40.60;;;;;;694273;28;798;-80
2022/01/06 00:47:34;;;;;;;;;;;23.20;40.60;;;;;;694231;28;881;-81
2022/01/06 00:47:54;;;;;;;;;;;23.20;40.70;;;;;;694728;28;854;-82
2022/01/06 00:48:15;;;;;;;;;;;23.10;40.50;;;;;;694370;28;798;-84
2022/01/06 00:48:35;;;;;;;;;;;23.10;40.50;;;;;;694256;28;889;-81
2022/01/06 00:48:56;;;;;;;;;;;23.10;40.50;;;;;;694381;28;924;-80
2022/01/06 00:49:17;;;;;;;;;;;23.10;40.50;;;;;;694388;28;925;-79
2022/01/06 00:49:37;;;;;;;;;;;23.10;40.50;;;;;;694165;28;925;-86
2022/01/06 00:49:59;;;;;;;;;;;23.10;40.50;;;;;;694414;28;834;-84
2022/01/06 00:50:20;;;;;;;;;;;23.10;40.50;;;;;;694285;28;944;-80
2022/01/06 00:50:41;;;;;;;;;;;23.10;40.50;;;;;;694314;28;952;-84
2022/01/06 00:51:02;;;;;;;;;;;23.10;40.50;;;;;;694122;28;865;-84
2022/01/06 00:51:23;;;;;;;;;;;23.10;40.50;;;;;;694582;28;971;-85
2022/01/06 00:51:44;;;;;;;;;;;23.10;41.60;;;;;;697265;28;1076;-85
2022/01/06 00:52:04;;;;;;;;;;;23.10;40.60;;;;;;697280;28;806;-81
2022/01/06 00:52:25;;;;;;;;;;;23.10;40.50;;;;;;696613;28;868;-80
2022/01/06 00:52:45;;;;;;;;;;;23.10;40.50;;;;;;697078;28;849;-85
2022/01/06 00:53:06;;;;;;;;;;;23.10;40.50;;;;;;697044;28;909;-86
2022/01/06 00:53:27;;;;;;;;;;;23.10;40.50;;;;;;697083;28;842;-86
2022/01/06 00:53:47;;;;;;;;;;;23.10;40.50;;;;;;696637;28;1042;-82
2022/01/06 00:54:08;;;;;;;;;;;23.10;40.50;;;;;;697134;28;802;-85
2022/01/06 00:54:32;;;;;;;;;;;23.10;40.50;;;;;;697073;28;831;-80
2022/01/06 00:54:52;;;;;;;;;;;23.10;40.50;;;;;;697000;28;857;-85
2022/01/06 00:55:13;;;;;;;;;;;23.10;40.40;;;;;;697087;28;924;-84
2022/01/06 00:55:34;;;;;;;;;;;23.10;40.40;;;;;;697079;28;841;-82
2022/01/06 00:55:55;;;;;;;;;;;23.10;40.40;;;;;;697014;28;802;-85
2022/01/06 00:56:18;;;;;;;;;;;23.10;40.50;;;;;;697154;28;893;-86
2022/01/06 00:56:39;;;;;;;;;;;23.10;40.50;;;;;;697193;28;861;-86
2022/01/06 00:56:59;;;;;;;;;;;23.10;40.40;;;;;;697210;28;885;-86
2022/01/06 00:57:20;;;;;;;;;;;23.10;40.40;;;;;;697358;28;1964;-86
2022/01/06 00:57:40;;;;;;;;;;;23.10;40.50;;;;;;697221;28;884;-84
2022/01/06 00:58:02;;;;;;;;;;;23.10;40.30;;;;;;697251;28;814;-83
2022/01/06 00:58:22;;;;;;;;;;;23.10;40.40;;;;;;697203;28;809;-85
2022/01/06 00:58:43;;;;;;;;;;;23.10;40.30;;;;;;697296;28;801;-86
2022/01/06 00:59:03;;;;;;;;;;;23.10;40.40;;;;;;697123;28;874;-82
2022/01/06 00:59:24;;;;;;;;;;;23.10;40.20;;;;;;697207;28;777;-85
2022/01/06 00:59:44;;;;;;;;;;;23.10;40.40;;;;;;697382;28;802;-84
2022/01/06 01:00:06;;;;;;;;;;;23.10;40.30;;;;;;697267;28;806;-85
2022/01/06 01:00:37;;;;;;;;;;;23.10;40.30;;;;;;697102;28;905;-85
2022/01/06 01:00:58;;;;;;;;;;;23.10;40.30;;;;;;696463;28;892;-82
2022/01/06 01:01:19;;;;;;;;;;;23.10;40.20;;;;;;697035;28;949;-80
2022/01/06 01:01:39;;;;;;;;;;;23.00;40.10;;;;;;696992;28;794;-80
2022/01/06 01:02:00;;;;;;;;;;;23.10;40.20;;;;;;696944;28;802;-82
2022/01/06 01:02:21;;;;;;;;;;;23.10;40.20;;;;;;696967;28;893;-81
2022/01/06 01:02:41;;;;;;;;;;;23.00;40.10;;;;;;697162;28;850;-81
2022/01/06 01:03:02;;;;;;;;;;;23.10;40.20;;;;;;697155;28;881;-85
2022/01/06 01:03:23;;;;;;;;;;;23.00;40.20;;;;;;697214;28;862;-81
2022/01/06 01:03:43;;;;;;;;;;;23.10;40.50;;;;;;697325;28;928;-84
2022/01/06 01:04:04;;;;;;;;;;;23.10;40.20;;;;;;697259;28;826;-80
2022/01/06 01:04:24;;;;;;;;;;;23.00;40.10;;;;;;697174;28;865;-82
2022/01/06 01:04:48;;;;;;;;;;;23.00;40.00;;;;;;697324;28;909;-84
2022/01/06 01:05:09;;;;;;;;;;;23.00;40.10;;;;;;697183;28;891;-85
2022/01/06 01:05:29;;;;;;;;;;;23.10;40.20;;;;;;697173;28;838;-84
2022/01/06 01:05:50;;;;;;;;;;;23.00;40.10;;;;;;697227;28;1031;-85
2022/01/06 01:06:11;;;;;;;;;;;23.00;40.10;;;;;;697253;28;869;-80
2022/01/06 01:06:32;;;;;;;;;;;23.00;40.20;;;;;;697169;28;921;-85
2022/01/06 01:06:52;;;;;;;;;;;23.10;40.20;;;;;;696769;28;852;-85
2022/01/06 01:07:13;;;;;;;;;;;23.10;40.30;;;;;;697172;28;857;-82
2022/01/06 01:07:34;;;;;;;;;;;23.00;40.10;;;;;;696878;28;1194;-82
2022/01/06 01:07:54;;;;;;;;;;;23.00;40.00;;;;;;697030;28;802;-81
2022/01/06 01:08:18;;;;;;;;;;;23.00;40.00;;;;;;697227;28;881;-84
2022/01/06 01:08:38;;;;;;;;;;;23.10;40.00;;;;;;696909;28;914;-82
2022/01/06 01:08:59;;;;;;;;;;;23.10;40.10;;;;;;696919;28;961;-84
2022/01/06 01:09:19;;;;;;;;;;;23.10;40.20;;;;;;697203;28;791;-83
2022/01/06 01:09:40;;;;;;;;;;;23.10;40.20;;;;;;697313;28;881;-82
2022/01/06 01:10:01;;;;;;;;;;;23.10;40.20;;;;;;697169;28;735;-84
2022/01/06 01:10:21;;;;;;;;;;;23.10;40.40;;;;;;696979;28;857;-82
2022/01/06 01:10:42;;;;;;;;;;;23.10;40.10;;;;;;697166;28;1618;-80
2022/01/06 01:11:03;;;;;;;;;;;23.10;40.20;;;;;;696899;28;814;-85
2022/01/06 01:11:24;;;;;;;;;;;23.10;40.20;;;;;;696905;28;940;-84
2022/01/06 01:11:44;;;;;;;;;;;23.10;40.10;;;;;;697113;28;838;-82
2022/01/06 01:12:08;;;;;;;;;;;23.10;40.30;;;;;;697073;28;735;-81
2022/01/06 01:12:28;;;;;;;;;;;23.10;40.10;;;;;;697050;28;806;-80
2022/01/06 01:12:49;;;;;;;;;;;23.10;40.10;;;;;;697010;28;901;-87
2022/01/06 01:13:12;;;;;;;;;;;23.10;40.10;;;;;;697141;28;847;-84
2022/01/06 01:13:37;;;;;;;;;;;23.10;40.10;;;;;;697143;28;893;-85
2022/01/06 01:14:07;;;;;;;;;;;23.10;40.10;;;;;;697153;28;538;-85
2022/01/06 01:14:31;;;;;;;;;;;23.10;40.10;;;;;;697223;28;876;-86
2022/01/06 01:15:05;;;;;;;;;;;23.10;40.10;;;;;;697811;28;877;-78
2022/01/06 01:15:27;;;;;;;;;;;23.10;40.10;;;;;;697226;28;837;-84
2022/01/06 01:15:53;;;;;;;;;;;23.10;40.00;;;;;;697162;28;897;-84
2022/01/06 01:16:24;;;;;;;;;;;23.10;40.10;;;;;;697228;28;849;-80
2022/01/06 01:16:58;;;;;;;;;;;23.10;40.10;;;;;;697291;28;921;-84
2022/01/06 01:17:18;;;;;;;;;;;23.20;40.10;;;;;;697200;28;1898;-84
2022/01/06 01:17:40;;;;;;;;;;;23.10;40.00;;;;;;697055;28;1263;-83
2022/01/06 01:18:09;;;;;;;;;;;23.20;40.10;;;;;;697050;28;965;-85
2022/01/06 01:18:30;;;;;;;;;;;23.20;40.10;;;;;;697082;28;817;-83
2022/01/06 01:18:51;;;;;;;;;;;23.20;40.10;;;;;;697149;28;814;-83
2022/01/06 01:19:13;;;;;;;;;;;23.20;40.10;;;;;;694165;28;1291;-85
2022/01/06 01:19:33;;;;;;;;;;;23.20;40.10;;;;;;694125;28;814;-83
2022/01/06 01:19:54;;;;;;;;;;;23.20;40.00;;;;;;694195;28;794;-81
2022/01/06 01:20:16;;;;;;;;;;;23.20;40.00;;;;;;694210;28;799;-83
2022/01/06 01:20:36;;;;;;;;;;;23.20;40.00;;;;;;694183;28;798;-84
2022/01/06 01:20:57;;;;;;;;;;;23.20;40.00;;;;;;694120;28;1325;-84
2022/01/06 01:21:19;;;;;;;;;;;23.20;40.00;;;;;;694309;28;795;-84
2022/01/06 01:21:40;;;;;;;;;;;23.20;39.90;;;;;;694158;28;790;-84
2022/01/06 01:22:00;;;;;;;;;;;23.20;39.90;;;;;;694197;28;869;-84
2022/01/06 01:22:21;;;;;;;;;;;23.20;40.00;;;;;;694247;28;806;-84
2022/01/06 01:22:42;;;;;;;;;;;23.20;40.00;;;;;;694971;28;799;-84
2022/01/06 01:23:02;;;;;;;;;;;23.20;40.00;;;;;;697102;28;906;-84
2022/01/06 01:23:23;;;;;;;;;;;23.20;40.00;;;;;;697072;28;878;-84
2022/01/06 01:23:44;;;;;;;;;;;23.20;39.90;;;;;;697200;28;843;-84
2022/01/06 01:24:04;;;;;;;;;;;23.20;39.90;;;;;;694200;28;1236;-84
2022/01/06 01:24:25;;;;;;;;;;;23.20;39.90;;;;;;694095;28;882;-81
2022/01/06 01:24:46;;;;;;;;;;;23.20;39.90;;;;;;694244;28;884;-83
2022/01/06 01:25:06;;;;;;;;;;;23.20;39.80;;;;;;694148;28;925;-84
2022/01/06 01:25:27;;;;;;;;;;;23.20;39.80;;;;;;694189;28;774;-84
2022/01/06 01:25:48;;;;;;;;;;;23.20;40.00;;;;;;694602;28;806;-84
2022/01/06 01:26:09;;;;;;;;;;;23.20;39.90;;;;;;697093;28;921;-83
2022/01/06 01:26:29;;;;;;;;;;;23.20;39.90;;;;;;697140;28;790;-85
2022/01/06 01:26:50;;;;;;;;;;;23.20;39.90;;;;;;697189;28;783;-81
2022/01/06 01:27:11;;;;;;;;;;;23.20;39.80;;;;;;697218;28;901;-83
2022/01/06 01:27:35;;;;;;;;;;;23.20;39.80;;;;;;697052;28;828;-84
2022/01/06 01:27:57;;;;;;;;;;;23.20;39.80;;;;;;697039;28;977;-85
2022/01/06 01:28:20;;;;;;;;;;;23.20;39.80;;;;;;697199;28;842;-83
2022/01/06 01:28:45;;;;;;;;;;;23.20;39.80;;;;;;697018;28;992;-84
2022/01/06 01:29:13;;;;;;;;;;;23.20;39.80;;;;;;697076;28;940;-83
2022/01/06 01:29:45;;;;;;;;;;;23.20;39.80;;;;;;694137;28;866;-84
2022/01/06 01:30:11;;;;;;;;;;;23.20;39.80;;;;;;691281;28;1254;-83
2022/01/06 01:30:39;;;;;;;;;;;23.20;39.70;;;;;;691441;28;923;-84
2022/01/06 01:31:12;;;;;;;;;;;23.20;39.70;;;;;;691574;28;810;-82
2022/01/06 01:31:37;;;;;;;;;;;23.20;39.70;;;;;;693781;28;937;-84
2022/01/06 01:31:57;;;;;;;;;;;23.20;39.70;;;;;;695750;28;848;-82
2022/01/06 01:32:26;;;;;;;;;;;23.20;39.70;;;;;;697156;28;817;-83
2022/01/06 01:32:51;;;;;;;;;;;23.20;39.70;;;;;;697201;28;876;-83
2022/01/06 01:33:16;;;;;;;;;;;23.20;39.60;;;;;;697220;28;893;-83
2022/01/06 01:33:38;;;;;;;;;;;23.20;39.60;;;;;;697165;28;798;-83
2022/01/06 01:34:02;;;;;;;;;;;23.20;39.70;;;;;;697128;28;826;-83
2022/01/06 01:34:25;;;;;;;;;;;23.20;39.70;;;;;;697157;28;885;-84
2022/01/06 01:34:46;;;;;;;;;;;23.20;39.60;;;;;;697203;28;850;-84
2022/01/06 01:35:08;;;;;;;;;;;23.20;39.60;;;;;;697096;28;1052;-84
2022/01/06 01:35:32;;;;;;;;;;;23.20;39.70;;;;;;694305;28;1322;-84
2022/01/06 01:35:52;;;;;;;;;;;23.20;39.70;;;;;;694714;28;885;-84
2022/01/06 01:36:13;;;;;;;;;;;23.20;39.70;;;;;;695196;28;886;-85
2022/01/06 01:36:33;;;;;;;;;;;23.20;39.70;;;;;;695207;28;881;-85
2022/01/06 01:36:55;;;;;;;;;;;23.20;39.70;;;;;;695294;28;783;-84
2022/01/06 01:37:15;;;;;;;;;;;23.20;39.80;;;;;;695914;28;1910;-82
2022/01/06 01:37:37;;;;;;;;;;;23.20;39.80;;;;;;697805;28;943;-83
2022/01/06 01:37:59;;;;;;;;;;;23.20;39.80;;;;;;697960;28;936;-84
2022/01/06 01:38:19;;;;;;;;;;;23.20;39.70;;;;;;695108;28;1426;-84
2022/01/06 01:38:43;;;;;;;;;;;23.20;39.70;;;;;;694852;28;874;-86
2022/01/06 01:39:04;;;;;;;;;;;23.20;39.80;;;;;;694667;28;957;-84
2022/01/06 01:39:25;;;;;;;;;;;23.20;39.80;;;;;;694531;28;1017;-80
2022/01/06 01:39:45;;;;;;;;;;;23.20;39.80;;;;;;694725;28;795;-84
2022/01/06 01:40:07;;;;;;;;;;;23.10;39.70;;;;;;695350;28;827;-83
2022/01/06 01:40:27;;;;;;;;;;;23.20;39.80;;;;;;694345;28;1032;-83
2022/01/06 01:40:48;;;;;;;;;;;23.10;39.70;;;;;;694813;28;855;-84
2022/01/06 01:41:09;;;;;;;;;;;23.10;39.80;;;;;;694411;28;1155;-84
2022/01/06 01:41:29;;;;;;;;;;;23.10;39.80;;;;;;694499;28;1370;-84
2022/01/06 01:41:50;;;;;;;;;;;23.10;39.70;;;;;;694671;28;869;-80
2022/01/06 01:42:11;;;;;;;;;;;23.10;39.80;;;;;;695329;28;830;-84
2022/01/06 01:42:32;;;;;;;;;;;23.10;39.70;;;;;;697327;28;795;-84
2022/01/06 01:42:52;;;;;;;;;;;23.10;39.70;;;;;;697450;28;881;-83
2022/01/06 01:43:13;;;;;;;;;;;23.10;39.70;;;;;;698757;28;861;-85
2022/01/06 01:43:33;;;;;;;;;;;23.10;39.70;;;;;;698456;28;845;-85
2022/01/06 01:43:55;;;;;;;;;;;23.10;39.80;;;;;;698348;28;811;-83
2022/01/06 01:44:18;;;;;;;;;;;23.10;39.80;;;;;;698342;28;901;-84
2022/01/06 01:44:39;;;;;;;;;;;23.10;39.90;;;;;;698176;28;854;-86
2022/01/06 01:45:02;;;;;;;;;;;23.10;39.70;;;;;;697619;28;806;-85
2022/01/06 01:45:28;;;;;;;;;;;23.10;39.80;;;;;;697762;28;1320;-84
2022/01/06 01:45:55;;;;;;;;;;;23.10;39.80;;;;;;694746;28;869;-83
2022/01/06 01:46:17;;;;;;;;;;;23.10;39.70;;;;;;694324;28;842;-83
2022/01/06 01:46:52;;;;;;;;;;;23.00;39.70;;;;;;694169;28;811;-84
2022/01/06 01:47:15;;;;;;;;;;;23.00;39.60;;;;;;694296;28;958;-84
2022/01/06 01:47:43;;;;;;;;;;;23.00;39.70;;;;;;694916;28;874;-82
2022/01/06 01:48:06;;;;;;;;;;;23.00;39.80;;;;;;697061;28;1111;-85
2022/01/06 01:48:33;;;;;;;;;;;23.00;39.60;;;;;;697218;28;948;-84
2022/01/06 01:49:15;;;;;;;;;;;23.00;39.60;;;;;;697208;28;897;-84
2022/01/06 01:50:20;;;;;;;;;;;23.00;39.60;;;;;;697156;28;629;-83
2022/01/06 01:50:41;;;;;;;;;;;23.00;39.50;;;;;;697573;28;815;-83
2022/01/06 01:51:01;;;;;;;;;;;23.10;39.60;;;;;;697239;28;881;-86
2022/01/06 01:51:22;;;;;;;;;;;23.10;39.50;;;;;;697445;28;814;-86
2022/01/06 01:51:43;;;;;;;;;;;23.00;39.60;;;;;;697641;28;782;-84
2022/01/06 01:52:03;;;;;;;;;;;23.00;39.60;;;;;;697791;28;799;-85
2022/01/06 01:52:24;;;;;;;;;;;23.10;39.50;;;;;;697212;28;925;-87
2022/01/06 01:52:46;;;;;;;;;;;23.10;39.60;;;;;;697819;28;961;-84
2022/01/06 01:53:06;;;;;;;;;;;23.00;39.50;;;;;;694697;28;1365;-84
2022/01/06 01:53:27;;;;;;;;;;;23.10;39.60;;;;;;694521;28;846;-86
2022/01/06 01:53:48;;;;;;;;;;;23.00;39.60;;;;;;694324;28;1187;-86
2022/01/06 01:54:09;;;;;;;;;;;23.00;39.60;;;;;;694654;28;775;-86
2022/01/06 01:54:29;;;;;;;;;;;23.00;39.50;;;;;;694546;28;838;-80
2022/01/06 01:54:50;;;;;;;;;;;23.00;39.70;;;;;;694907;28;874;-86
2022/01/06 01:55:12;;;;;;;;;;;23.10;39.70;;;;;;697704;28;869;-85
2022/01/06 01:55:32;;;;;;;;;;;23.00;39.60;;;;;;697412;28;779;-86
2022/01/06 01:55:53;;;;;;;;;;;23.00;39.60;;;;;;697715;28;865;-85
2022/01/06 01:56:14;;;;;;;;;;;23.00;39.50;;;;;;697905;28;791;-85
2022/01/06 01:56:34;;;;;;;;;;;23.00;39.50;;;;;;697586;28;838;-85
2022/01/06 01:56:55;;;;;;;;;;;23.00;39.50;;;;;;697070;28;896;-82
2022/01/06 01:57:16;;;;;;;;;;;23.00;39.60;;;;;;697133;28;1882;-84
2022/01/06 01:57:36;;;;;;;;;;;23.00;39.50;;;;;;697261;28;518;-84
2022/01/06 01:57:57;;;;;;;;;;;23.00;39.60;;;;;;697116;28;901;-84
2022/01/06 01:58:18;;;;;;;;;;;23.00;39.60;;;;;;697390;28;886;-85
2022/01/06 01:58:40;;;;;;;;;;;23.00;39.60;;;;;;697133;28;948;-84
2022/01/06 01:59:01;;;;;;;;;;;23.00;39.60;;;;;;697346;28;853;-84
2022/01/06 01:59:22;;;;;;;;;;;23.00;39.60;;;;;;697050;28;901;-84
2022/01/06 01:59:44;;;;;;;;;;;23.00;39.50;;;;;;697226;28;885;-85
2022/01/06 02:00:06;;;;;;;;;;;23.00;39.60;;;;;;697094;28;894;-80
2022/01/06 02:00:27;;;;;;;;;;;23.00;39.50;;;;;;697119;28;1054;-85
2022/01/06 02:00:48;;;;;;;;;;;23.00;39.50;;;;;;697238;28;975;-85
2022/01/06 02:01:12;;;;;;;;;;;23.00;39.60;;;;;;697037;28;893;-85
2022/01/06 02:01:32;;;;;;;;;;;23.00;39.50;;;;;;694078;28;884;-84
2022/01/06 02:01:54;;;;;;;;;;;23.00;39.50;;;;;;694100;28;845;-85
2022/01/06 02:02:14;;;;;;;;;;;23.00;39.50;;;;;;694156;28;818;-86
2022/01/06 02:02:35;;;;;;;;;;;23.00;39.50;;;;;;694065;28;853;-82
2022/01/06 02:02:55;;;;;;;;;;;23.00;39.50;;;;;;694126;28;802;-84
2022/01/06 02:03:16;;;;;;;;;;;23.00;39.50;;;;;;694552;28;881;-85
2022/01/06 02:03:36;;;;;;;;;;;23.00;39.50;;;;;;697080;28;810;-85
2022/01/06 02:03:57;;;;;;;;;;;23.00;39.40;;;;;;696912;28;858;-82
2022/01/06 02:04:17;;;;;;;;;;;23.00;39.50;;;;;;697074;28;961;-84
2022/01/06 02:04:39;;;;;;;;;;;23.00;39.40;;;;;;696995;28;817;-84
2022/01/06 02:05:00;;;;;;;;;;;22.90;39.40;;;;;;696950;28;834;-85
2022/01/06 02:05:28;;;;;;;;;;;23.00;39.30;;;;;;697005;28;886;-84
2022/01/06 02:05:49;;;;;;;;;;;22.90;39.30;;;;;;694122;28;898;-84
2022/01/06 02:06:09;;;;;;;;;;;23.00;39.40;;;;;;694011;28;881;-83
2022/01/06 02:06:30;;;;;;;;;;;22.90;39.30;;;;;;694115;28;802;-84
2022/01/06 02:06:51;;;;;;;;;;;23.00;39.30;;;;;;694101;28;895;-84
2022/01/06 02:07:11;;;;;;;;;;;22.90;39.30;;;;;;694301;28;810;-84
2022/01/06 02:07:33;;;;;;;;;;;23.00;39.40;;;;;;694526;28;778;-84
2022/01/06 02:07:55;;;;;;;;;;;23.00;39.50;;;;;;697046;28;900;-84
2022/01/06 02:08:15;;;;;;;;;;;23.00;39.40;;;;;;696961;28;938;-85
2022/01/06 02:08:36;;;;;;;;;;;23.00;39.40;;;;;;694006;28;924;-84
2022/01/06 02:08:57;;;;;;;;;;;22.90;39.30;;;;;;693976;28;1050;-84
2022/01/06 02:09:17;;;;;;;;;;;23.00;39.50;;;;;;694090;28;1307;-85
2022/01/06 02:09:38;;;;;;;;;;;23.00;39.30;;;;;;694070;28;873;-84
2022/01/06 02:09:58;;;;;;;;;;;23.00;39.40;;;;;;694069;28;917;-84
2022/01/06 02:10:20;;;;;;;;;;;22.90;39.50;;;;;;694400;28;925;-84
2022/01/06 02:10:41;;;;;;;;;;;23.00;39.30;;;;;;697133;28;837;-84
2022/01/06 02:11:02;;;;;;;;;;;22.90;39.20;;;;;;696999;28;1424;-84
2022/01/06 02:11:22;;;;;;;;;;;22.90;39.30;;;;;;694017;28;747;-83
2022/01/06 02:11:43;;;;;;;;;;;22.90;39.20;;;;;;694174;28;881;-84
2022/01/06 02:12:03;;;;;;;;;;;23.00;39.30;;;;;;694004;28;1013;-84
2022/01/06 02:12:31;;;;;;;;;;;23.00;39.30;;;;;;693895;28;1102;-84
2022/01/06 02:12:54;;;;;;;;;;;23.00;39.20;;;;;;694029;28;853;-85
2022/01/06 02:13:15;;;;;;;;;;;23.00;39.30;;;;;;694152;28;802;-83
2022/01/06 02:13:59;;;;;;;;;;;23.00;39.30;;;;;;694006;28;837;-83
2022/01/06 02:14:19;;;;;;;;;;;22.90;39.20;;;;;;693682;28;1226;-83
2022/01/06 02:14:42;;;;;;;;;;;22.90;39.20;;;;;;693982;28;1286;-83
2022/01/06 02:15:07;;;;;;;;;;;22.00;39.20;;;;;;694115;28;822;-84
2022/01/06 02:15:28;;;;;;;;;;;22.90;39.20;;;;;;693970;28;878;-84
2022/01/06 02:15:49;;;;;;;;;;;23.00;39.60;;;;;;691227;28;1116;-82
2022/01/06 02:16:09;;;;;;;;;;;22.90;39.10;;;;;;692017;28;1390;-85
2022/01/06 02:16:30;;;;;;;;;;;23.00;39.20;;;;;;691473;28;985;-85
2022/01/06 02:16:53;;;;;;;;;;;22.90;39.10;;;;;;691267;28;894;-83
2022/01/06 02:17:14;;;;;;;;;;;22.90;39.00;;;;;;691290;28;1902;-84
2022/01/06 02:17:36;;;;;;;;;;;22.90;39.50;;;;;;692453;28;1154;-84
2022/01/06 02:17:57;;;;;;;;;;;22.90;39.10;;;;;;695015;28;886;-84
2022/01/06 02:18:17;;;;;;;;;;;22.90;39.20;;;;;;696918;28;798;-84
2022/01/06 02:18:38;;;;;;;;;;;22.90;39.00;;;;;;696848;28;798;-84
2022/01/06 02:18:59;;;;;;;;;;;22.90;38.90;;;;;;696654;28;1369;-84
2022/01/06 02:19:20;;;;;;;;;;;22.90;39.00;;;;;;696893;28;842;-85
2022/01/06 02:19:40;;;;;;;;;;;22.90;39.10;;;;;;697083;28;972;-85
2022/01/06 02:20:02;;;;;;;;;;;22.90;39.00;;;;;;697030;28;810;-84
2022/01/06 02:20:23;;;;;;;;;;;22.90;39.10;;;;;;696995;28;842;-85
2022/01/06 02:20:43;;;;;;;;;;;22.90;38.90;;;;;;697166;28;852;-85
2022/01/06 02:21:04;;;;;;;;;;;22.90;39.00;;;;;;696943;28;818;-86
2022/01/06 02:21:25;;;;;;;;;;;23.00;38.90;;;;;;697095;28;893;-82
2022/01/06 02:21:45;;;;;;;;;;;22.90;39.00;;;;;;697136;28;912;-82